createdAt,value
2022-09-23T00:00:15.874Z,6.96
2022-09-23T00:01:15.966Z,6.85
2022-09-23T00:02:15.895Z,6.77
2022-09-23T00:03:15.859Z,6.81
2022-09-23T00:04:15.868Z,6.82
2022-09-23T00:05:15.845Z,6.84
2022-09-23T00:06:15.844Z,6.81
2022-09-23T00:07:15.836Z,6.81
2022-09-23T00:08:15.827Z,6.92
2022-09-23T00:09:15.852Z,6.79
2022-09-23T00:10:15.817Z,6.89
2022-09-23T00:11:15.813Z,6.89
2022-09-23T00:12:15.809Z,6.89
2022-09-23T00:13:15.803Z,6.88
2022-09-23T00:14:15.816Z,7.06
2022-09-23T00:15:15.804Z,6.99
2022-09-23T00:16:15.823Z,6.92
2022-09-23T00:17:15.778Z,6.99
2022-09-23T00:18:15.782Z,6.99
2022-09-23T00:19:15.771Z,6.89
2022-09-23T00:20:15.786Z,7.06
2022-09-23T00:21:15.770Z,6.92
2022-09-23T00:22:15.759Z,6.89
2022-09-23T00:23:15.754Z,6.95
2022-09-23T00:24:15.769Z,6.97
2022-09-23T00:25:15.742Z,6.92
2022-09-23T00:26:15.746Z,6.85
2022-09-23T00:27:15.744Z,6.89
2022-09-23T00:28:15.726Z,6.99
2022-09-23T00:29:15.718Z,6.99
2022-09-23T00:30:15.746Z,7.02
2022-09-23T00:31:15.745Z,7.02
2022-09-23T00:32:15.704Z,6.88
2022-09-23T00:33:15.702Z,6.92
2022-09-23T00:34:15.685Z,7.00
2022-09-23T00:35:15.679Z,6.93
2022-09-23T00:36:15.815Z,6.84
2022-09-23T00:37:15.671Z,6.92
2022-09-23T00:38:15.668Z,6.85
2022-09-23T00:39:15.654Z,6.82
2022-09-23T00:40:15.728Z,6.78
2022-09-23T00:41:15.652Z,6.87
2022-09-23T00:42:15.669Z,6.77
2022-09-23T00:43:15.644Z,6.74
2022-09-23T00:44:15.641Z,6.70
2022-09-23T00:45:15.623Z,6.75
2022-09-23T00:46:15.658Z,6.74
2022-09-23T00:47:15.619Z,6.66
2022-09-23T00:48:15.629Z,6.59
2022-09-23T00:49:15.622Z,6.57
2022-09-23T00:50:15.601Z,6.54
2022-09-23T00:51:15.594Z,6.52
2022-09-23T00:52:15.590Z,6.49
2022-09-23T00:53:15.583Z,6.59
2022-09-23T00:54:15.607Z,6.51
2022-09-23T00:55:15.580Z,6.56
2022-09-23T00:56:15.573Z,6.60
2022-09-23T00:57:15.560Z,6.56
2022-09-23T00:58:15.554Z,6.54
2022-09-23T00:59:15.547Z,6.48
2022-09-23T01:00:15.572Z,6.51
2022-09-23T01:01:15.578Z,6.44
2022-09-23T01:02:15.557Z,6.38
2022-09-23T01:03:15.531Z,6.28
2022-09-23T01:04:15.521Z,6.39
2022-09-23T01:05:15.525Z,6.39
2022-09-23T01:06:15.535Z,6.35
2022-09-23T01:07:15.527Z,6.36
2022-09-23T01:08:15.499Z,6.28
2022-09-23T01:09:15.496Z,6.38
2022-09-23T01:10:15.487Z,6.36
2022-09-23T01:11:15.486Z,6.39
2022-09-23T01:12:15.486Z,6.39
2022-09-23T01:13:15.495Z,6.35
2022-09-23T01:14:15.469Z,6.39
2022-09-23T01:15:15.459Z,6.33
2022-09-23T01:16:15.510Z,6.36
2022-09-23T01:17:15.454Z,6.30
2022-09-23T01:18:15.445Z,6.33
2022-09-23T01:19:15.460Z,6.41
2022-09-23T01:20:15.437Z,6.48
2022-09-23T01:21:15.426Z,6.41
2022-09-23T01:22:15.418Z,6.35
2022-09-23T01:23:15.415Z,6.27
2022-09-23T01:24:15.404Z,6.26
2022-09-23T01:25:15.421Z,6.20
2022-09-23T01:26:15.396Z,6.33
2022-09-23T01:27:15.388Z,6.20
2022-09-23T01:28:15.400Z,6.30
2022-09-23T01:29:15.380Z,6.27
2022-09-23T01:30:15.385Z,6.31
2022-09-23T01:31:15.422Z,6.26
2022-09-23T01:32:15.391Z,6.24
2022-09-23T01:33:15.355Z,6.24
2022-09-23T01:34:15.346Z,6.27
2022-09-23T01:35:15.349Z,6.28
2022-09-23T01:36:15.338Z,6.27
2022-09-23T01:37:15.358Z,6.39
2022-09-23T01:38:15.324Z,6.35
2022-09-23T01:39:15.316Z,6.27
2022-09-23T01:40:15.402Z,6.28
2022-09-23T01:41:15.326Z,6.33
2022-09-23T01:42:15.300Z,6.36
2022-09-23T01:43:15.288Z,6.45
2022-09-23T01:44:15.304Z,6.52
2022-09-23T01:45:15.282Z,6.48
2022-09-23T01:46:15.281Z,6.42
2022-09-23T01:47:15.285Z,6.44
2022-09-23T01:48:15.288Z,6.44
2022-09-23T01:49:15.271Z,6.27
2022-09-23T01:50:15.254Z,6.39
2022-09-23T01:51:15.264Z,6.38
2022-09-23T01:52:15.236Z,6.26
2022-09-23T01:53:15.225Z,6.22
2022-09-23T01:54:15.222Z,6.17
2022-09-23T01:55:15.230Z,6.20
2022-09-23T01:56:15.207Z,6.17
2022-09-23T01:57:15.208Z,6.19
2022-09-23T01:58:15.204Z,6.19
2022-09-23T01:59:15.195Z,6.17
2022-09-23T02:00:15.213Z,6.19
2022-09-23T02:01:15.275Z,6.12
2022-09-23T02:02:15.336Z,6.09
2022-09-23T02:03:15.164Z,6.09
2022-09-23T02:04:15.163Z,5.93
2022-09-23T02:05:15.183Z,5.91
2022-09-23T02:06:15.178Z,5.90
2022-09-23T02:07:15.157Z,5.91
2022-09-23T02:08:15.155Z,5.97
2022-09-23T02:09:15.135Z,5.94
2022-09-23T02:10:15.127Z,5.91
2022-09-23T02:11:15.154Z,5.89
2022-09-23T02:12:15.115Z,5.98
2022-09-23T02:13:15.132Z,6.01
2022-09-23T02:14:15.110Z,5.84
2022-09-23T02:15:15.098Z,5.93
2022-09-23T02:16:15.158Z,5.98
2022-09-23T02:17:15.091Z,5.99
2022-09-23T02:18:15.090Z,5.86
2022-09-23T02:19:15.096Z,5.84
2022-09-23T02:20:15.065Z,5.76
2022-09-23T02:21:15.067Z,5.80
2022-09-23T02:22:15.050Z,5.83
2022-09-23T02:23:15.048Z,5.73
2022-09-23T02:24:15.064Z,5.76
2022-09-23T02:25:22.072Z,5.80
2022-09-23T02:26:15.043Z,5.68
2022-09-23T02:27:15.024Z,5.62
2022-09-23T02:28:15.013Z,5.68
2022-09-23T02:29:15.020Z,5.79
2022-09-23T02:30:15.036Z,5.71
2022-09-23T02:31:15.025Z,5.75
2022-09-23T02:32:15.096Z,5.75
2022-09-23T02:33:14.988Z,5.72
2022-09-23T02:34:14.998Z,5.76
2022-09-23T02:35:14.979Z,5.75
2022-09-23T02:36:14.993Z,5.66
2022-09-23T02:37:14.962Z,5.79
2022-09-23T02:38:14.978Z,5.73
2022-09-23T02:39:14.960Z,5.79
2022-09-23T02:40:15.012Z,5.75
2022-09-23T02:41:14.947Z,5.79
2022-09-23T02:42:14.955Z,5.76
2022-09-23T02:43:14.943Z,5.75
2022-09-23T02:44:14.940Z,5.73
2022-09-23T02:45:14.927Z,5.66
2022-09-23T02:46:14.976Z,5.57
2022-09-23T02:47:14.918Z,5.50
2022-09-23T02:48:14.942Z,5.54
2022-09-23T02:49:14.898Z,5.50
2022-09-23T02:50:14.897Z,5.59
2022-09-23T02:51:14.884Z,5.73
2022-09-23T02:52:14.888Z,5.73
2022-09-23T02:53:14.882Z,5.72
2022-09-23T02:54:14.906Z,5.66
2022-09-23T02:55:14.874Z,5.65
2022-09-23T02:56:14.865Z,5.71
2022-09-23T02:57:14.858Z,5.76
2022-09-23T02:58:14.855Z,5.72
2022-09-23T02:59:14.884Z,5.64
2022-09-23T03:00:14.849Z,5.72
2022-09-23T03:01:14.861Z,5.71
2022-09-23T03:02:14.864Z,5.61
2022-09-23T03:03:14.834Z,5.57
2022-09-23T03:04:14.828Z,5.54
2022-09-23T03:05:14.846Z,5.65
2022-09-23T03:06:14.817Z,5.66
2022-09-23T03:07:14.814Z,5.61
2022-09-23T03:08:14.809Z,5.64
2022-09-23T03:09:14.809Z,5.62
2022-09-23T03:10:14.796Z,5.64
2022-09-23T03:11:14.778Z,5.61
2022-09-23T03:12:14.803Z,5.65
2022-09-23T03:13:14.772Z,5.66
2022-09-23T03:14:14.770Z,5.65
2022-09-23T03:15:14.763Z,5.51
2022-09-23T03:16:14.819Z,5.65
2022-09-23T03:17:14.744Z,5.57
2022-09-23T03:18:14.763Z,5.62
2022-09-23T03:19:14.753Z,5.50
2022-09-23T03:20:14.740Z,5.47
2022-09-23T03:21:14.735Z,5.53
2022-09-23T03:22:14.732Z,5.56
2022-09-23T03:23:14.774Z,5.53
2022-09-23T03:24:14.709Z,5.46
2022-09-23T03:25:14.702Z,5.38
2022-09-23T03:26:14.711Z,5.41
2022-09-23T03:27:14.697Z,5.38
2022-09-23T03:28:14.715Z,5.43
2022-09-23T03:29:14.704Z,5.43
2022-09-23T03:30:14.671Z,5.30
2022-09-23T03:31:14.693Z,5.39
2022-09-23T03:32:14.663Z,5.36
2022-09-23T03:33:14.663Z,5.39
2022-09-23T03:34:14.670Z,5.36
2022-09-23T03:35:14.655Z,5.38
2022-09-23T03:36:14.640Z,5.29
2022-09-23T03:37:14.635Z,5.36
2022-09-23T03:38:14.639Z,5.38
2022-09-23T03:39:14.644Z,5.33
2022-09-23T03:40:14.685Z,5.39
2022-09-23T03:41:14.615Z,5.29
2022-09-23T03:42:14.607Z,5.38
2022-09-23T03:43:14.629Z,5.20
2022-09-23T03:44:14.601Z,5.20
2022-09-23T03:45:14.612Z,5.33
2022-09-23T03:46:14.673Z,5.28
2022-09-23T03:47:14.587Z,5.30
2022-09-23T03:48:14.602Z,5.30
2022-09-23T03:49:14.570Z,5.35
2022-09-23T03:50:14.575Z,5.29
2022-09-23T03:51:14.565Z,5.39
2022-09-23T03:52:14.551Z,5.29
2022-09-23T03:53:14.544Z,5.36
2022-09-23T03:54:14.565Z,5.38
2022-09-23T03:55:14.531Z,5.29
2022-09-23T03:56:14.530Z,5.32
2022-09-23T03:57:14.534Z,5.33
2022-09-23T03:58:14.520Z,5.35
2022-09-23T03:59:14.513Z,5.44
2022-09-23T04:00:14.525Z,5.43
2022-09-23T04:01:14.582Z,5.36
2022-09-23T04:02:14.561Z,5.35
2022-09-23T04:03:14.518Z,5.43
2022-09-23T04:04:14.489Z,5.32
2022-09-23T04:05:14.492Z,5.35
2022-09-23T04:06:14.476Z,5.36
2022-09-23T04:07:14.469Z,5.38
2022-09-23T04:08:14.496Z,5.36
2022-09-23T04:09:14.459Z,5.36
2022-09-23T04:10:14.457Z,5.35
2022-09-23T04:11:14.450Z,5.33
2022-09-23T04:12:14.447Z,5.29
2022-09-23T04:13:14.470Z,5.18
2022-09-23T04:14:14.434Z,5.18
2022-09-23T04:15:14.429Z,5.18
2022-09-23T04:16:14.591Z,5.20
2022-09-23T04:17:14.431Z,5.23
2022-09-23T04:18:14.421Z,5.18
2022-09-23T04:19:14.445Z,5.15
2022-09-23T04:20:14.418Z,5.15
2022-09-23T04:21:14.409Z,5.26
2022-09-23T04:22:14.407Z,5.20
2022-09-23T04:23:14.419Z,5.17
2022-09-23T04:24:14.399Z,5.28
2022-09-23T04:25:14.390Z,5.28
2022-09-23T04:26:14.387Z,5.11
2022-09-23T04:27:14.379Z,5.12
2022-09-23T04:28:14.380Z,5.18
2022-09-23T04:29:14.386Z,5.12
2022-09-23T04:30:14.373Z,5.18
2022-09-23T04:31:14.399Z,5.23
2022-09-23T04:32:14.358Z,5.26
2022-09-23T04:33:14.347Z,5.43
2022-09-23T04:34:14.341Z,5.20
2022-09-23T04:35:14.362Z,5.20
2022-09-23T04:36:14.364Z,5.21
2022-09-23T04:37:14.327Z,5.15
2022-09-23T04:38:14.324Z,5.32
2022-09-23T04:39:14.329Z,5.36
2022-09-23T04:40:14.385Z,5.35
2022-09-23T04:41:14.312Z,5.30
2022-09-23T04:42:14.316Z,5.32
2022-09-23T04:43:14.286Z,5.28
2022-09-23T04:44:14.287Z,5.25
2022-09-23T04:45:14.279Z,5.23
2022-09-23T04:46:14.328Z,5.20
2022-09-23T04:47:14.262Z,5.21
2022-09-23T04:48:14.266Z,5.29
2022-09-23T04:49:14.268Z,5.23
2022-09-23T04:50:14.269Z,5.18
2022-09-23T04:51:14.250Z,5.21
2022-09-23T04:52:14.243Z,5.23
2022-09-23T04:53:14.237Z,5.20
2022-09-23T04:54:14.239Z,5.29
2022-09-23T04:55:14.246Z,5.15
2022-09-23T04:56:14.218Z,5.14
2022-09-23T04:57:14.238Z,5.08
2022-09-23T04:58:14.211Z,5.08
2022-09-23T04:59:14.192Z,5.07
2022-09-23T05:00:14.199Z,5.08
2022-09-23T05:01:14.256Z,5.11
2022-09-23T05:02:14.240Z,5.14
2022-09-23T05:03:14.206Z,5.15
2022-09-23T05:04:14.286Z,5.17
2022-09-23T05:05:14.164Z,5.21
2022-09-23T05:06:14.174Z,5.17
2022-09-23T05:07:14.148Z,5.21
2022-09-23T05:08:14.174Z,5.20
2022-09-23T05:09:14.144Z,5.21
2022-09-23T05:10:14.143Z,5.15
2022-09-23T05:11:14.144Z,5.28
2022-09-23T05:12:14.166Z,5.25
2022-09-23T05:13:14.130Z,5.29
2022-09-23T05:14:14.117Z,5.26
2022-09-23T05:15:14.116Z,5.26
2022-09-23T05:16:14.166Z,5.21
2022-09-23T05:17:14.103Z,5.17
2022-09-23T05:18:16.903Z,5.26
2022-09-23T05:19:15.140Z,5.25
2022-09-23T05:20:14.086Z,5.38
2022-09-23T05:21:14.088Z,5.29
2022-09-23T05:22:14.073Z,5.23
2022-09-23T05:23:14.094Z,5.18
2022-09-23T05:24:14.068Z,5.18
2022-09-23T05:25:14.066Z,5.23
2022-09-23T05:26:14.067Z,5.35
2022-09-23T05:27:14.070Z,5.30
2022-09-23T05:28:14.042Z,5.29
2022-09-23T05:29:14.051Z,5.41
2022-09-23T05:30:14.037Z,5.29
2022-09-23T05:31:18.856Z,5.32
2022-09-23T05:32:15.049Z,5.25
2022-09-23T05:33:14.029Z,5.17
2022-09-23T05:34:14.019Z,5.14
2022-09-23T05:35:14.020Z,5.20
2022-09-23T05:36:14.008Z,5.21
2022-09-23T05:37:14.022Z,5.21
2022-09-23T05:38:14.001Z,5.14
2022-09-23T05:39:13.999Z,5.11
2022-09-23T05:40:14.044Z,5.12
2022-09-23T05:41:13.979Z,5.08
2022-09-23T05:42:13.982Z,5.20
2022-09-23T05:43:13.989Z,5.12
2022-09-23T05:44:13.965Z,5.17
2022-09-23T05:45:13.973Z,5.28
2022-09-23T05:46:14.002Z,5.26
2022-09-23T05:47:13.964Z,5.26
2022-09-23T05:48:13.953Z,5.26
2022-09-23T05:49:13.941Z,5.26
2022-09-23T05:50:13.963Z,5.26
2022-09-23T05:51:13.932Z,5.23
2022-09-23T05:52:13.939Z,5.25
2022-09-23T05:53:13.922Z,5.28
2022-09-23T05:54:13.929Z,5.36
2022-09-23T05:55:13.906Z,5.43
2022-09-23T05:56:13.923Z,5.39
2022-09-23T05:57:13.910Z,5.48
2022-09-23T05:58:13.902Z,5.43
2022-09-23T05:59:13.892Z,5.33
2022-09-23T06:00:13.881Z,5.33
2022-09-23T06:01:13.881Z,5.33
2022-09-23T06:02:13.922Z,5.43
2022-09-23T06:03:13.980Z,5.59
2022-09-23T06:04:13.859Z,5.53
2022-09-23T06:05:13.860Z,5.53
2022-09-23T06:06:13.851Z,5.56
2022-09-23T06:07:13.852Z,5.69
2022-09-23T06:08:13.836Z,5.73
2022-09-23T06:09:13.855Z,5.75
2022-09-23T06:10:13.831Z,5.76
2022-09-23T06:11:13.831Z,5.94
2022-09-23T06:12:13.927Z,5.97
2022-09-23T06:13:13.807Z,6.04
2022-09-23T06:14:13.837Z,6.05
2022-09-23T06:15:13.794Z,6.09
2022-09-23T06:16:13.882Z,6.08
2022-09-23T06:17:13.778Z,6.20
2022-09-23T06:18:13.777Z,6.31
2022-09-23T06:19:13.773Z,6.35
2022-09-23T06:20:13.786Z,6.42
2022-09-23T06:21:13.777Z,6.59
2022-09-23T06:22:13.751Z,6.75
2022-09-23T06:23:13.739Z,6.97
2022-09-23T06:24:18.824Z,6.97
2022-09-23T06:25:13.726Z,6.88
2022-09-23T06:26:13.725Z,6.82
2022-09-23T06:27:13.739Z,6.85
2022-09-23T06:28:13.722Z,6.78
2022-09-23T06:29:13.728Z,6.89
2022-09-23T06:30:13.710Z,6.97
2022-09-23T06:31:14.097Z,7.03
2022-09-23T06:32:13.687Z,7.11
2022-09-23T06:33:13.681Z,7.06
2022-09-23T06:34:14.334Z,6.93
2022-09-23T06:35:24.683Z,6.87
2022-09-23T06:36:23.924Z,6.92
2022-09-23T06:37:19.976Z,7.13
2022-09-23T06:38:14.650Z,7.33
2022-09-23T06:39:13.649Z,7.36
2022-09-23T06:40:13.665Z,7.33
2022-09-23T06:41:13.651Z,7.35
2022-09-23T06:42:13.664Z,7.32
2022-09-23T06:43:13.617Z,7.38
2022-09-23T06:44:13.618Z,7.18
2022-09-23T06:45:13.605Z,7.23
2022-09-23T06:46:13.649Z,7.20
2022-09-23T06:47:13.594Z,7.17
2022-09-23T06:48:13.626Z,7.13
2022-09-23T06:49:13.691Z,7.13
2022-09-23T06:50:13.578Z,7.15
2022-09-23T06:51:13.578Z,7.11
2022-09-23T06:52:13.597Z,7.15
2022-09-23T06:53:13.560Z,7.36
2022-09-23T06:54:13.559Z,7.29
2022-09-23T06:55:13.551Z,7.20
2022-09-23T06:56:13.549Z,7.28
2022-09-23T06:57:13.542Z,7.31
2022-09-23T06:58:13.560Z,7.29
2022-09-23T06:59:13.550Z,7.24
2022-09-23T07:00:13.556Z,7.29
2022-09-23T07:01:13.561Z,7.29
2022-09-23T07:02:13.673Z,7.24
2022-09-23T07:03:13.525Z,7.33
2022-09-23T07:04:13.501Z,7.24
2022-09-23T07:05:13.493Z,7.31
2022-09-23T07:06:13.493Z,7.42
2022-09-23T07:07:13.503Z,7.56
2022-09-23T07:08:13.477Z,7.51
2022-09-23T07:09:13.489Z,7.54
2022-09-23T07:10:13.474Z,7.56
2022-09-23T07:11:13.601Z,7.77
2022-09-23T07:12:13.474Z,7.88
2022-09-23T07:13:16.243Z,7.82
2022-09-23T07:14:13.458Z,7.77
2022-09-23T07:15:13.430Z,7.69
2022-09-23T07:16:13.484Z,7.61
2022-09-23T07:17:13.415Z,7.70
2022-09-23T07:18:13.410Z,7.60
2022-09-23T07:19:13.440Z,7.60
2022-09-23T07:20:13.409Z,7.69
2022-09-23T07:21:13.389Z,7.39
2022-09-23T07:22:13.467Z,7.48
2022-09-23T07:23:13.382Z,7.61
2022-09-23T07:24:13.388Z,7.69
2022-09-23T07:25:13.376Z,7.82
2022-09-23T07:26:13.380Z,7.87
2022-09-23T07:27:13.371Z,7.98
2022-09-23T07:28:13.392Z,8.01
2022-09-23T07:29:13.372Z,7.95
2022-09-23T07:30:22.223Z,8.08
2022-09-23T07:31:14.993Z,8.03
2022-09-23T07:32:14.389Z,8.00
2022-09-23T07:33:28.192Z,7.98
2022-09-23T07:34:14.352Z,8.08
2022-09-23T07:35:13.330Z,8.19
2022-09-23T07:36:13.342Z,8.18
2022-09-23T07:37:13.330Z,8.23
2022-09-23T07:38:13.306Z,8.27
2022-09-23T07:39:13.301Z,8.31
2022-09-23T07:40:13.362Z,8.51
2022-09-23T07:41:13.285Z,8.66
2022-09-23T07:42:13.334Z,8.71
2022-09-23T07:43:13.275Z,8.74
2022-09-23T07:44:13.295Z,8.78
2022-09-23T07:45:13.256Z,8.94
2022-09-23T07:46:13.329Z,9.04
2022-09-23T07:47:13.245Z,9.10
2022-09-23T07:48:13.241Z,9.16
2022-09-23T07:49:13.263Z,9.16
2022-09-23T07:50:13.228Z,9.28
2022-09-23T07:51:13.225Z,9.44
2022-09-23T07:52:13.224Z,9.61
2022-09-23T07:53:13.201Z,9.58
2022-09-23T07:54:13.208Z,9.58
2022-09-23T07:55:15.630Z,9.50
2022-09-23T07:56:14.201Z,9.59
2022-09-23T07:57:13.190Z,9.91
2022-09-23T07:58:13.197Z,10.19
2022-09-23T07:59:13.201Z,10.26
2022-09-23T08:00:13.187Z,10.37
2022-09-23T08:01:13.191Z,10.71
2022-09-23T08:02:13.205Z,11.05
2022-09-23T08:03:13.198Z,11.29
2022-09-23T08:04:13.167Z,11.48
2022-09-23T08:05:13.157Z,11.59
2022-09-23T08:06:13.139Z,11.75
2022-09-23T08:07:13.135Z,12.04
2022-09-23T08:08:13.139Z,12.28
2022-09-23T08:09:13.154Z,12.35
2022-09-23T08:10:13.119Z,12.64
2022-09-23T08:11:13.132Z,13.35
2022-09-23T08:12:16.014Z,14.25
2022-09-23T08:13:13.095Z,14.96
2022-09-23T08:14:13.131Z,14.94
2022-09-23T08:15:13.084Z,15.04
2022-09-23T08:16:13.150Z,15.64
2022-09-23T08:17:13.068Z,16.01
2022-09-23T08:18:13.067Z,16.58
2022-09-23T08:19:13.054Z,16.53
2022-09-23T08:20:13.070Z,16.53
2022-09-23T08:21:13.043Z,16.66
2022-09-23T08:22:13.027Z,17.16
2022-09-23T08:23:13.025Z,17.90
2022-09-23T08:24:13.028Z,18.40
2022-09-23T08:25:13.009Z,18.98
2022-09-23T08:26:19.720Z,19.48
2022-09-23T08:27:12.990Z,19.62
2022-09-23T08:28:13.000Z,19.74
2022-09-23T08:29:12.985Z,20.11
2022-09-23T08:30:13.031Z,20.40
2022-09-23T08:31:13.049Z,20.77
2022-09-23T08:32:12.949Z,20.84
2022-09-23T08:33:12.941Z,20.80
2022-09-23T08:34:12.938Z,21.17
2022-09-23T08:35:12.929Z,21.75
2022-09-23T08:36:12.926Z,22.30
2022-09-23T08:37:12.938Z,22.76
2022-09-23T08:38:12.913Z,23.08
2022-09-23T08:39:12.902Z,23.55
2022-09-23T08:40:12.957Z,23.66
2022-09-23T08:41:12.903Z,23.86
2022-09-23T08:42:12.872Z,23.88
2022-09-23T08:43:12.865Z,24.14
2022-09-23T08:44:12.855Z,24.57
2022-09-23T08:45:12.843Z,24.91
2022-09-23T08:46:12.887Z,24.85
2022-09-23T08:47:12.853Z,24.81
2022-09-23T08:48:13.240Z,25.26
2022-09-23T08:49:12.825Z,25.35
2022-09-23T08:50:12.962Z,25.55
2022-09-23T08:51:12.787Z,25.14
2022-09-23T08:52:12.848Z,25.31
2022-09-23T08:53:12.790Z,25.75
2022-09-23T08:54:12.778Z,25.87
2022-09-23T08:55:12.760Z,26.02
2022-09-23T08:56:12.755Z,26.03
2022-09-23T08:57:12.739Z,25.96
2022-09-23T08:58:25.020Z,26.10
2022-09-23T08:59:13.726Z,25.98
2022-09-23T09:00:12.738Z,26.13
2022-09-23T09:01:12.751Z,26.10
2022-09-23T09:02:12.736Z,25.99
2022-09-23T09:03:12.693Z,25.13
2022-09-23T09:04:12.873Z,24.88
2022-09-23T09:05:12.800Z,24.40
2022-09-23T09:06:12.672Z,24.21
2022-09-23T09:08:12.684Z,24.33
2022-09-23T09:09:12.651Z,24.40
2022-09-23T09:10:12.698Z,24.57
2022-09-23T09:11:12.656Z,24.11
2022-09-23T09:12:12.631Z,23.13
2022-09-23T09:13:12.650Z,23.15
2022-09-23T09:14:12.613Z,22.90
2022-09-23T09:15:12.604Z,22.87
2022-09-23T09:16:12.641Z,22.88
2022-09-23T09:17:12.589Z,22.53
2022-09-23T09:18:12.585Z,22.25
2022-09-23T09:19:12.591Z,21.91
2022-09-23T09:20:12.581Z,21.57
2022-09-23T09:21:12.596Z,21.29
2022-09-23T09:22:12.551Z,21.11
2022-09-23T09:23:12.559Z,20.75
2022-09-23T09:24:12.540Z,20.63
2022-09-23T09:25:14.404Z,20.34
2022-09-23T09:26:12.526Z,20.04
2022-09-23T09:27:12.510Z,19.76
2022-09-23T09:28:12.516Z,19.64
2022-09-23T09:29:33.722Z,19.45
2022-09-23T09:30:13.505Z,19.34
2022-09-23T09:31:12.537Z,19.00
2022-09-23T09:32:12.478Z,18.99
2022-09-23T09:33:12.469Z,19.02
2022-09-23T09:34:12.485Z,19.26
2022-09-23T09:35:12.526Z,18.99
2022-09-23T09:36:12.443Z,18.99
2022-09-23T09:37:12.441Z,19.08
2022-09-23T09:38:12.441Z,19.12
2022-09-23T09:39:12.450Z,19.11
2022-09-23T09:40:12.536Z,19.14
2022-09-23T09:41:12.410Z,19.16
2022-09-23T09:42:12.410Z,19.22
2022-09-23T09:43:12.401Z,19.16
2022-09-23T09:44:12.388Z,19.21
2022-09-23T09:45:12.400Z,19.30
2022-09-23T09:46:12.401Z,19.41
2022-09-23T09:47:12.358Z,19.49
2022-09-23T09:48:12.352Z,19.52
2022-09-23T09:49:12.350Z,19.56
2022-09-23T09:50:12.345Z,19.39
2022-09-23T09:51:12.357Z,19.48
2022-09-23T09:52:12.321Z,19.39
2022-09-23T09:53:12.265Z,19.33
2022-09-23T09:54:12.247Z,19.21
2022-09-23T09:55:12.294Z,19.30
2022-09-23T09:56:12.265Z,19.27
2022-09-23T09:57:12.251Z,19.34
2022-09-23T09:58:12.222Z,19.12
2022-09-23T09:59:12.207Z,19.21
2022-09-23T10:00:12.231Z,19.22
2022-09-23T10:01:12.224Z,19.44
2022-09-23T10:02:12.182Z,19.54
2022-09-23T10:03:12.202Z,19.67
2022-09-23T10:04:12.229Z,19.59
2022-09-23T10:05:12.208Z,19.59
2022-09-23T10:06:12.158Z,19.66
2022-09-23T10:07:12.146Z,19.58
2022-09-23T10:08:12.143Z,19.67
2022-09-23T10:09:12.165Z,19.64
2022-09-23T10:10:22.434Z,19.64
2022-09-23T10:11:13.145Z,19.54
2022-09-23T10:12:12.113Z,19.54
2022-09-23T10:13:12.099Z,19.66
2022-09-23T10:14:12.109Z,19.79
2022-09-23T10:15:12.090Z,19.96
2022-09-23T10:16:12.088Z,20.04
2022-09-23T10:17:12.096Z,20.10
2022-09-23T10:18:12.071Z,20.11
2022-09-23T10:19:12.054Z,20.19
2022-09-23T10:20:12.040Z,20.28
2022-09-23T10:21:12.039Z,20.50
2022-09-23T10:22:12.038Z,20.66
2022-09-23T10:23:12.053Z,20.74
2022-09-23T10:24:12.044Z,20.82
2022-09-23T10:25:12.001Z,20.93
2022-09-23T10:26:12.007Z,20.92
2022-09-23T10:27:12.066Z,20.99
2022-09-23T10:28:11.991Z,20.70
2022-09-23T10:29:11.976Z,20.78
2022-09-23T10:30:11.965Z,20.81
2022-09-23T10:31:12.040Z,20.96
2022-09-23T10:32:11.952Z,21.06
2022-09-23T10:33:11.971Z,20.90
2022-09-23T10:34:11.939Z,20.62
2022-09-23T10:35:11.951Z,20.60
2022-09-23T10:36:11.920Z,20.62
2022-09-23T10:37:11.925Z,20.75
2022-09-23T10:38:11.907Z,20.63
2022-09-23T10:39:11.888Z,20.50
2022-09-23T10:40:12.035Z,20.50
2022-09-23T10:41:11.892Z,20.65
2022-09-23T10:42:11.935Z,20.52
2022-09-23T10:43:11.880Z,20.58
2022-09-23T10:44:11.900Z,20.74
2022-09-23T10:45:11.856Z,20.66
2022-09-23T10:46:11.888Z,20.85
2022-09-23T10:47:11.855Z,20.84
2022-09-23T10:48:11.857Z,20.66
2022-09-23T10:49:11.828Z,20.63
2022-09-23T10:50:11.855Z,20.65
2022-09-23T10:51:11.814Z,20.60
2022-09-23T10:52:11.806Z,20.75
2022-09-23T10:53:11.797Z,20.78
2022-09-23T10:54:11.824Z,20.93
2022-09-23T10:55:11.808Z,20.95
2022-09-23T10:56:11.785Z,21.12
2022-09-23T10:57:11.779Z,21.07
2022-09-23T10:58:11.765Z,21.22
2022-09-23T10:59:11.758Z,21.02
2022-09-23T11:00:11.854Z,20.87
2022-09-23T11:01:11.802Z,20.82
2022-09-23T11:02:11.732Z,20.65
2022-09-23T11:03:11.724Z,20.81
2022-09-23T11:04:12.212Z,20.87
2022-09-23T11:05:11.747Z,20.59
2022-09-23T11:06:11.708Z,20.66
2022-09-23T11:07:11.701Z,20.66
2022-09-23T11:08:11.696Z,20.60
2022-09-23T11:09:11.707Z,20.72
2022-09-23T11:10:23.235Z,20.67
2022-09-23T11:11:12.671Z,20.70
2022-09-23T11:12:11.672Z,20.67
2022-09-23T11:13:11.695Z,20.66
2022-09-23T11:14:11.651Z,20.66
2022-09-23T11:15:11.638Z,20.85
2022-09-23T11:16:11.671Z,20.88
2022-09-23T11:17:11.682Z,21.06
2022-09-23T11:18:11.659Z,21.22
2022-09-23T11:19:11.631Z,21.12
2022-09-23T11:20:11.610Z,21.22
2022-09-23T11:21:11.599Z,21.15
2022-09-23T11:22:11.591Z,21.17
2022-09-23T11:23:11.590Z,20.78
2022-09-23T11:24:11.602Z,20.74
2022-09-23T11:25:11.575Z,20.69
2022-09-23T11:26:11.590Z,20.60
2022-09-23T11:27:11.556Z,20.70
2022-09-23T11:28:11.566Z,20.75
2022-09-23T11:29:11.812Z,20.65
2022-09-23T11:30:11.538Z,20.51
2022-09-23T11:31:11.601Z,20.72
2022-09-23T11:32:11.628Z,20.74
2022-09-23T11:33:11.512Z,20.74
2022-09-23T11:34:11.522Z,20.65
2022-09-23T11:35:11.495Z,20.82
2022-09-23T11:36:11.497Z,20.87
2022-09-23T11:37:11.503Z,20.88
2022-09-23T11:38:11.481Z,21.06
2022-09-23T11:39:11.476Z,21.02
2022-09-23T11:40:11.498Z,20.87
2022-09-23T11:41:11.463Z,20.77
2022-09-23T11:42:11.460Z,20.67
2022-09-23T11:43:11.487Z,20.74
2022-09-23T11:44:11.438Z,20.66
2022-09-23T11:45:11.426Z,20.80
2022-09-23T11:46:11.492Z,20.50
2022-09-23T11:47:11.430Z,20.52
2022-09-23T11:48:11.408Z,20.43
2022-09-23T11:49:11.422Z,20.44
2022-09-23T11:50:11.405Z,20.40
2022-09-23T11:51:11.390Z,20.47
2022-09-23T11:52:11.383Z,20.43
2022-09-23T11:53:11.389Z,20.41
2022-09-23T11:54:11.388Z,20.48
2022-09-23T11:55:19.399Z,20.47
2022-09-23T11:56:11.356Z,20.56
2022-09-23T11:57:11.352Z,20.39
2022-09-23T11:58:22.247Z,20.40
2022-09-23T11:59:11.714Z,20.41
2022-09-23T12:00:11.393Z,20.14
2022-09-23T12:01:11.327Z,20.03
2022-09-23T12:02:19.437Z,20.10
2022-09-23T12:03:11.442Z,20.14
2022-09-23T12:04:19.870Z,20.14
2022-09-23T12:05:12.394Z,20.03
2022-09-23T12:06:11.304Z,19.91
2022-09-23T12:07:11.277Z,19.94
2022-09-23T12:08:11.285Z,19.82
2022-09-23T12:09:11.272Z,19.91
2022-09-23T12:10:11.306Z,19.96
2022-09-23T12:11:11.270Z,20.13
2022-09-23T12:12:11.250Z,20.04
2022-09-23T12:13:11.237Z,20.02
2022-09-23T12:14:11.425Z,19.86
2022-09-23T12:15:11.224Z,19.81
2022-09-23T12:16:11.272Z,19.59
2022-09-23T12:17:11.232Z,19.79
2022-09-23T12:18:11.231Z,19.92
